Airfield :
LOGIN :

Register | Disclaimer

   EN    FR    IT 

 










Legend :    VFR   Marginal VFR   IFR   Intensive IFR   Very Intensive IFR
Visi :
Ceiling :
>= 8 km
>= 3000ft
5 to 8 km
1000 to 3000 ft
1500m to 5 km
500 to 1000 ft
800 to 1500m
200 to 500 ft
< 800m
< 200 ft
Symbols :   Thunderstorms  Fog  Heavy snow  Heavy precipitations  Wind > 20 kt
SIGMETs :     Misc.  Thunderstorms  Icing  Turbulence  Mountain Waves  Volcanic Ashes







- Airport Elevation : 425 ft
- IATA code : DTM


EDLW - Dortmund

CURRENT METAR :
  • 240720Z 20013KT 9999 VCSH BKN015 12/09 Q1021

EXPIRED METARs :
  • 240650Z 21008KT 9999 BKN017 12/09 Q1021
  • 240620Z 19009KT 9999 BKN019 11/08 Q1020
  • 240550Z 18010KT 9999 BKN017 11/08 Q1020
  • 240520Z 18011KT 9999 BKN017 11/08 Q1020
  • 240450Z 20008KT 9999 BKN017 11/08 Q1020

TAF TAF EDLW
Valid from the 24 at 06:00 until the 25 at 06:00 UTC


240500Z 2406/2506 21010KT 8000 BKN020
TEMPO 2406/2409 4000 -DZ BR BKN008
TEMPO 2415/2422 22015KT 4000 RA BKN011
No reported NOTAMs for that airfield.



MET'MAP, your aeronautical weather chart ! - Copyright ORBIFLY December 2007 - Disclaimer

ORBIFLY MET'MAP TEAM :

Programming & Development : Alexandra Zaïnal
Concept & Development : Baudouin d'Aumeries
Co-Development & Prog : Marc-Olivier Méhu
Technical & hardware support : Manuel Goepfert

Contact : metmap@orbifly.com




SOURCES & CREDITS :

   NOAA